»·PEaware :: N999SP KLAS-KONT

N999SP :: KLAS-KONT

FLIGHT INFORMATION

Flight Status: Arrived
Operator: Privately registered:
United States
More flights under this callsign
Pilot: Simon R. (5722)
Aircraft: Unknown
(DHC8)
More flights by this aircraft type
Origin: KLAS McCarran Intl
United States
Destination: KONT Ontario Intl
United States
More flights between these airports :: More routes between these airports
Route: +GFS HEC ZIGGY5
File this flight plan on PilotEdge
Remarks: Bombardier Q400
Altitude:
(Current/Filed)
18,000ft
Speed:
(Current/Filed)
400kts
Departed: 04-Feb-17 05:36 PM
Arrived: 04-Feb-17 06:20 PM
Distance/Time
Traveled:
170nm/0:44
Distance/Time
To Go:
Arrived

Flight Plot

Page will automatically refresh every two minutes.

Flight plan parsing failed; only flown route is shown


Map Options




Map Legend


Flown Route
Filed Route
Departure Airport
Arrival Airport
Navaid (VOR, NDB)
Fix

Horizontal Profiles

Position Reports

Time Latitude Longitude Heading Altitude Ground
Speed
04-Feb-17 16:51 36.081125 -115.129248 89 2148ft 0kts
04-Feb-17 16:52 36.081125 -115.129248 89 2148ft 0kts
04-Feb-17 16:53 36.081125 -115.129248 89 2148ft 0kts
04-Feb-17 16:54 36.081125 -115.129248 89 2148ft 0kts
04-Feb-17 16:55 36.081125 -115.129248 89 2148ft 0kts
04-Feb-17 16:56 36.081125 -115.129248 89 2148ft 0kts
04-Feb-17 16:57 36.081125 -115.129248 89 2148ft 0kts
04-Feb-17 16:58 36.081125 -115.129248 89 2148ft 0kts
04-Feb-17 16:59 36.081125 -115.129248 89 2148ft 0kts
04-Feb-17 17:00 36.081125 -115.129248 89 2148ft 0kts
04-Feb-17 17:01 36.081125 -115.129248 89 2148ft 0kts
04-Feb-17 17:02 36.081125 -115.129248 89 2148ft 0kts
04-Feb-17 17:03 36.081125 -115.129248 89 2148ft 0kts
04-Feb-17 17:04 36.081125 -115.129248 89 2148ft 0kts
04-Feb-17 17:05 36.081125 -115.129248 89 2148ft 0kts
04-Feb-17 17:06 36.081125 -115.129248 89 2148ft 0kts
04-Feb-17 17:07 36.081125 -115.129248 89 2148ft 0kts
04-Feb-17 17:08 36.081125 -115.129248 89 2148ft 0kts
04-Feb-17 17:09 36.081125 -115.129248 89 2148ft 0kts
04-Feb-17 17:10 36.081125 -115.129248 89 2148ft 0kts
04-Feb-17 17:11 36.081125 -115.129248 89 2148ft 0kts
04-Feb-17 17:12 36.081125 -115.129248 89 2148ft 0kts
04-Feb-17 17:13 36.081125 -115.129248 89 2148ft 0kts
04-Feb-17 17:14 36.081125 -115.129248 89 2148ft 0kts
04-Feb-17 17:15 36.081125 -115.129248 89 2148ft 0kts
04-Feb-17 17:16 36.081125 -115.129248 89 2148ft 0kts
04-Feb-17 17:17 36.081125 -115.129248 89 2148ft 0kts
04-Feb-17 17:18 36.081125 -115.129248 89 2148ft 0kts
04-Feb-17 17:19 36.081125 -115.129248 89 2148ft 0kts
04-Feb-17 17:20 36.081125 -115.129248 89 2148ft 0kts
04-Feb-17 17:21 36.081125 -115.129248 89 2148ft 0kts
04-Feb-17 17:22 36.081125 -115.129248 89 2148ft 0kts
04-Feb-17 17:23 36.081125 -115.129248 89 2148ft 0kts
04-Feb-17 17:24 36.081125 -115.129248 89 2148ft 0kts
04-Feb-17 17:25 36.081125 -115.129248 89 2148ft 0kts
04-Feb-17 17:26 36.080994 -115.129913 38 2148ft 0kts
04-Feb-17 17:27 36.080994 -115.129913 38 2148ft 0kts
04-Feb-17 17:28 36.081199 -115.129922 316 2148ft 5kts
04-Feb-17 17:29 36.079329 -115.130351 179 2148ft 9kts
04-Feb-17 17:30 36.078307 -115.128009 90 2148ft 10kts
04-Feb-17 17:31 36.077578 -115.125003 89 2148ft 12kts
04-Feb-17 17:32 36.077491 -115.121595 145 2148ft 0kts
04-Feb-17 17:33 36.077491 -115.121595 145 2148ft 0kts
04-Feb-17 17:34 36.077491 -115.121595 145 2148ft 0kts
04-Feb-17 17:35 36.077419 -115.121534 146 2148ft 2kts
04-Feb-17 17:36 36.076453 -115.127212 267 2148ft 97kts
04-Feb-17 17:37 36.064495 -115.173591 201 3647ft 168kts
04-Feb-17 17:38 36.013658 -115.182761 187 5206ft 222kts
04-Feb-17 17:39 35.961437 -115.185164 186 8335ft 186kts
04-Feb-17 17:40 35.909360 -115.187513 186 10273ft 211kts
04-Feb-17 17:41 35.838920 -115.191948 186 10221ft 302kts
04-Feb-17 17:42 35.749814 -115.198615 186 10299ft 338kts
04-Feb-17 17:43 35.654978 -115.206277 186 10296ft 351kts
04-Feb-17 17:44 35.555938 -115.210105 173 10684ft 348kts
04-Feb-17 17:45 35.476457 -115.200718 182 15088ft 247kts
04-Feb-17 17:46 35.411829 -115.197993 207 17664ft 213kts
04-Feb-17 17:47 35.379453 -115.262320 243 18050ft 261kts
04-Feb-17 17:48 35.340216 -115.347790 241 18092ft 310kts
04-Feb-17 17:49 35.294862 -115.442810 241 18084ft 331kts
04-Feb-17 17:50 35.247873 -115.540394 241 18082ft 338kts
04-Feb-17 17:51 35.200423 -115.638603 241 18080ft 340kts
04-Feb-17 17:52 35.151651 -115.739256 241 18092ft 340kts
04-Feb-17 17:53 35.103645 -115.838049 241 18096ft 340kts
04-Feb-17 17:54 35.055207 -115.937450 241 18087ft 340kts
04-Feb-17 17:55 35.007078 -116.035935 241 18092ft 341kts
04-Feb-17 17:56 34.958272 -116.135845 240 18112ft 345kts
04-Feb-17 17:57 34.908621 -116.237292 240 18113ft 350kts
04-Feb-17 17:58 34.858175 -116.339677 240 18093ft 356kts
04-Feb-17 17:59 34.807321 -116.442533 240 18072ft 357kts
04-Feb-17 18:00 34.740703 -116.531890 222 18070ft 361kts
04-Feb-17 18:01 34.672674 -116.620451 228 18073ft 359kts
04-Feb-17 18:02 34.603985 -116.708220 228 18065ft 354kts
04-Feb-17 18:03 34.538754 -116.790679 228 18055ft 317kts
04-Feb-17 18:04 34.482305 -116.861761 228 17559ft 271kts
04-Feb-17 18:05 34.424715 -116.928254 217 15667ft 278kts
04-Feb-17 18:06 34.368758 -116.991885 227 13979ft 280kts
04-Feb-17 18:07 34.314930 -117.055984 225 12174ft 245kts
04-Feb-17 18:08 34.269907 -117.110457 227 12076ft 226kts
04-Feb-17 18:09 34.225504 -117.164138 227 11978ft 226kts
04-Feb-17 18:10 34.173285 -117.198913 181 11904ft 233kts
04-Feb-17 18:11 34.113995 -117.196573 181 10006ft 195kts
04-Feb-17 18:12 34.070719 -117.226985 261 8193ft 212kts
04-Feb-17 18:13 34.063088 -117.280951 255 5006ft 129kts
04-Feb-17 18:14 34.056267 -117.336439 258 5000ft 177kts
04-Feb-17 18:15 34.050545 -117.380403 269 3567ft 116kts
04-Feb-17 18:16 34.050641 -117.427303 271 4741ft 161kts
04-Feb-17 18:17 34.053826 -117.470995 266 3763ft 114kts
04-Feb-17 18:18 34.055699 -117.508082 262 3203ft 108kts
04-Feb-17 18:19 34.054858 -117.549035 271 2185ft 131kts
04-Feb-17 18:20 34.054745 -117.586219 126 943ft 0kts
04-Feb-17 18:21 34.054745 -117.586219 126 943ft 0kts

Navigation Log

Ident Type
Flight plan parsing failed, navigation log unavailable